This is the latest recevied weather packets stored in our database for station/object SP5QWJ. If no packets are shown the sender has not sent any weather packets the latest 10 day(s).
| Time | Temp. | Humidity | Pressure | Rain* | Wind** | Luminosity | Snow |
|---|---|---|---|---|---|---|---|
| 1778179960 | 12.78° C | 100% | 1013.2 hPa | - | - | - | - |
| 1778079642 | 24.44° C | 50% | 1004.4 hPa | - | - | - | - |
| 1778078731 | 24.44° C | 50% | 1004.4 hPa | - | - | - | - |
| 1778077819 | 23.89° C | 50% | 1004.4 hPa | - | - | - | - |
| 1778076908 | 24.44° C | 49% | 1004.4 hPa | - | - | - | - |
| 1778075997 | 25° C | 48% | 1004.3 hPa | - | - | - | - |
| 1778075084 | 24.44° C | 48% | 1004.3 hPa | - | - | - | - |
| 1778074173 | 25.56° C | 47% | 1004.3 hPa | - | - | - | - |
| 1778073262 | 25.56° C | 49% | 1004.1 hPa | - | - | - | - |
| 1778072350 | 24.44° C | 49% | 1004.2 hPa | - | - | - | - |
| 1778071439 | 25° C | 49% | 1004.2 hPa | - | - | - | - |
| 1778070527 | 25.56° C | 49% | 1004.4 hPa | - | - | - | - |
| 1778068705 | 25° C | 49% | 1004.4 hPa | - | - | - | - |
| 1778067792 | 25° C | 49% | 1004.4 hPa | - | - | - | - |
| 1778066881 | 24.44° C | 48% | 1004.3 hPa | - | - | - | - |
| 1778065969 | 25° C | 48% | 1004.2 hPa | - | - | - | - |
| 1778065058 | 25.56° C | 48% | 1004.3 hPa | - | - | - | - |
| 1778064147 | 25.56° C | 47% | 1004.3 hPa | - | - | - | - |
| 1778063235 | 25.56° C | 45% | 1004.3 hPa | - | - | - | - |
| 1778062323 | 25° C | 46% | 1004.3 hPa | - | - | - | - |
| 1778060500 | 28.33° C | 41% | 1004.3 hPa | - | - | - | - |
| 1778059589 | 32.78° C | 39% | 1004.6 hPa | - | - | - | - |
| 1778058678 | 26.11° C | 50% | 1004.4 hPa | - | - | - | - |
| 1778057767 | 25° C | 48% | 1004.3 hPa | - | - | - | - |
| 1778056856 | 25.56° C | 48% | 1004.3 hPa | - | - | - | - |
* Rain since midnight (hover to see other rain measurements)
** Current wind speed in m/s (hover to see current wind gust speed)